Time;durP1;ratioP1;P1;durP2;ratioP2;P2;SDS_P1;SDS_P2;PMS_P1;PMS_P2;Temp;Humidity;BMP_temperature;BMP_pressure;BME280_temperature;BME280_humidity;BME280_pressure;Samples;Min_cycle;Max_cycle;Signal;HPM_P1;HPM_P2
2023/07/20 00:02:15;;;;;;;7.60;7.20;;;;;;;13.69;100.00;101156.94;5071602;28;20447;-43
2023/07/20 00:04:42;;;;;;;7.57;7.13;;;;;;;13.67;100.00;101152.84;5071657;28;20434;-40
2023/07/20 00:07:10;;;;;;;8.10;7.70;;;;;;;13.63;100.00;101154.28;5071023;28;20434;-43
2023/07/20 00:09:38;;;;;;;8.10;7.60;;;;;;;13.59;100.00;101156.53;5070799;28;20484;-43
2023/07/20 00:12:06;;;;;;;7.77;7.37;;;;;;;13.56;100.00;101148.91;5070813;28;20465;-42
2023/07/20 00:14:34;;;;;;;8.50;8.00;;;;;;;13.55;100.00;101147.28;5071791;28;20488;-41
2023/07/20 00:17:03;;;;;;;7.80;7.50;;;;;;;13.53;100.00;101145.84;5071684;28;20434;-40
2023/07/20 00:19:32;;;;;;;8.67;8.17;;;;;;;13.49;100.00;101145.41;5070671;28;20541;-39
2023/07/20 00:22:00;;;;;;;8.43;7.90;;;;;;;13.48;100.00;101142.94;5070769;28;20830;-39
2023/07/20 00:24:28;;;;;;;8.03;7.73;;;;;;;13.46;100.00;101137.78;5070811;28;20475;-39
2023/07/20 00:26:55;;;;;;;8.00;7.70;;;;;;;13.42;100.00;101138.38;5070933;28;20839;-41
2023/07/20 00:29:23;;;;;;;8.83;8.43;;;;;;;13.39;100.00;101133.44;5070411;28;20824;-43
2023/07/20 00:31:51;;;;;;;9.17;8.77;;;;;;;13.36;100.00;101132.00;5070906;28;21045;-41
2023/07/20 00:34:19;;;;;;;7.87;7.57;;;;;;;13.34;100.00;101135.91;5070681;28;20449;-42
2023/07/20 00:36:48;;;;;;;8.47;8.17;;;;;;;13.32;100.00;101146.81;5070500;28;20962;-40
2023/07/20 00:39:16;;;;;;;8.70;8.40;;;;;;;13.29;100.00;101141.88;5069569;28;20470;-43
2023/07/20 00:41:44;;;;;;;8.83;8.33;;;;;;;13.25;100.00;101144.16;5070266;28;20430;-41
2023/07/20 00:44:12;;;;;;;10.03;9.47;;;;;;;13.23;100.00;101148.06;5070380;28;20434;-42
2023/07/20 00:46:41;;;;;;;9.20;8.90;;;;;;;13.22;100.00;101151.78;5070854;28;20438;-43
2023/07/20 00:49:09;;;;;;;8.63;8.10;;;;;;;13.20;100.00;101148.50;5070118;28;20493;-45
2023/07/20 00:51:37;;;;;;;8.53;8.17;;;;;;;13.18;100.00;101150.53;5070230;28;21002;-42
2023/07/20 00:54:06;;;;;;;8.67;8.37;;;;;;;13.16;100.00;101148.06;5070218;28;20485;-41
2023/07/20 00:56:34;;;;;;;8.80;8.40;;;;;;;13.15;100.00;101151.75;5070649;28;20427;-44
2023/07/20 00:59:01;;;;;;;8.30;8.10;;;;;;;13.12;100.00;101154.00;5070088;28;20480;-40
2023/07/20 01:01:29;;;;;;;8.63;8.33;;;;;;;13.08;100.00;101150.09;5070834;28;20811;-42
2023/07/20 01:03:57;;;;;;;9.30;8.90;;;;;;;13.05;100.00;101147.81;5070257;28;20915;-40
2023/07/20 01:06:35;;;;;;;9.53;9.13;;;;;;;12.99;100.00;101148.63;5070240;28;20457;-42
2023/07/20 01:09:14;;;;;;;9.00;8.70;;;;;;;12.93;100.00;101152.91;5069993;28;20481;-46
2023/07/20 01:11:51;;;;;;;9.00;8.60;;;;;;;12.90;100.00;101149.81;5069820;28;20466;-45
2023/07/20 01:14:19;;;;;;;9.50;8.90;;;;;;;12.84;100.00;101151.47;5070144;28;20434;-40
2023/07/20 01:16:49;;;;;;;9.93;9.53;;;;;;;12.79;100.00;101140.50;5070762;28;20470;-41
2023/07/20 01:19:17;;;;;;;9.47;8.90;;;;;;;12.75;100.00;101144.63;5069396;28;20457;-41
2023/07/20 01:21:52;;;;;;;10.20;9.70;;;;;;;12.70;100.00;101147.91;5069891;28;21203;-41
2023/07/20 01:24:47;;;;;;;10.27;9.87;;;;;;;12.64;100.00;101146.03;5070110;28;20437;-45
2023/07/20 01:27:45;;;;;;;10.33;9.97;;;;;;;12.57;100.00;101139.81;5067204;28;20484;-39
2023/07/20 01:30:31;;;;;;;9.17;8.87;;;;;;;12.49;100.00;101141.84;5069297;28;20537;-43
2023/07/20 01:33:02;;;;;;;10.77;10.17;;;;;;;12.45;100.00;101141.44;5070175;28;20509;-41
2023/07/20 01:35:31;;;;;;;10.00;9.70;;;;;;;12.41;100.00;101142.00;5069923;28;20430;-39
2023/07/20 01:38:00;;;;;;;10.53;9.90;;;;;;;12.42;100.00;101143.66;5069885;28;20434;-40
2023/07/20 01:40:29;;;;;;;10.37;9.87;;;;;;;12.39;100.00;101136.03;5069360;28;20488;-40
2023/07/20 01:42:56;;;;;;;9.47;9.17;;;;;;;12.35;100.00;101132.94;5069772;28;20508;-41
2023/07/20 01:45:24;;;;;;;9.93;9.50;;;;;;;12.36;100.00;101134.59;5069942;28;20951;-42
2023/07/20 01:47:52;;;;;;;9.80;9.40;;;;;;;12.32;100.00;101135.19;5070351;28;20465;-40
2023/07/20 01:50:22;;;;;;;9.50;9.20;;;;;;;12.30;100.00;101130.03;5069319;28;20542;-40
2023/07/20 01:52:49;;;;;;;9.93;9.50;;;;;;;12.28;100.00;101136.59;5069588;28;20504;-41
2023/07/20 01:55:17;;;;;;;11.37;10.70;;;;;;;12.27;100.00;101140.31;5069792;28;20427;-39
2023/07/20 01:57:45;;;;;;;10.80;10.30;;;;;;;12.25;100.00;101143.16;5071233;28;20487;-40
2023/07/20 02:00:13;;;;;;;11.33;9.70;;;;;;;12.25;100.00;101142.31;5073516;28;20492;-40
2023/07/20 02:02:43;;;;;;;10.80;10.30;;;;;;;12.26;100.00;101133.28;5073881;28;20460;-39
2023/07/20 02:05:11;;;;;;;10.70;10.20;;;;;;;12.28;100.00;101137.41;5073421;28;20430;-40
2023/07/20 02:07:40;;;;;;;10.27;9.57;;;;;;;12.31;100.00;101141.53;5073591;28;20483;-41
2023/07/20 02:10:08;;;;;;;9.90;9.60;;;;;;;12.33;100.00;101137.66;5072938;28;20466;-40
2023/07/20 02:12:36;;;;;;;11.33;10.23;;;;;;;12.35;100.00;101142.81;5073253;28;20987;-39
2023/07/20 02:15:04;;;;;;;11.20;10.70;;;;;;;12.35;100.00;101148.16;5073361;28;21017;-40
2023/07/20 02:17:31;;;;;;;10.70;10.30;;;;;;;12.35;100.00;101146.31;5073948;28;20426;-40
2023/07/20 02:19:59;;;;;;;10.17;9.70;;;;;;;12.37;100.00;101140.75;5072743;28;20458;-39
2023/07/20 02:22:27;;;;;;;10.70;10.23;;;;;;;12.36;100.00;101134.59;5072757;28;20442;-44
2023/07/20 02:24:56;;;;;;;11.10;10.60;;;;;;;12.37;100.00;101144.25;5073069;28;20426;-42
2023/07/20 02:27:24;;;;;;;10.93;10.43;;;;;;;12.37;100.00;101127.38;5072961;28;20470;-40
2023/07/20 02:29:51;;;;;;;11.70;11.10;;;;;;;12.36;100.00;101129.25;5072485;28;20507;-39
2023/07/20 02:32:19;;;;;;;10.93;10.53;;;;;;;12.36;100.00;101133.78;5073233;28;21053;-41
2023/07/20 02:34:47;;;;;;;11.07;10.57;;;;;;;12.35;100.00;101135.59;5072906;28;20427;-40
2023/07/20 02:37:14;;;;;;;11.70;11.10;;;;;;;12.35;100.00;101137.44;5072853;28;20430;-43
2023/07/20 02:39:42;;;;;;;11.50;11.00;;;;;;;12.35;100.00;101142.81;5072575;28;21029;-40
2023/07/20 02:42:11;;;;;;;11.63;10.90;;;;;;;12.35;100.00;101138.28;5072585;28;20496;-40
2023/07/20 02:44:39;;;;;;;11.40;11.00;;;;;;;12.36;100.00;101126.56;5072661;28;20455;-40
2023/07/20 02:47:07;;;;;;;11.03;10.63;;;;;;;12.38;100.00;101124.50;5073723;28;20457;-42
2023/07/20 02:49:35;;;;;;;11.23;10.73;;;;;;;12.42;100.00;101125.78;5072358;28;21238;-44
2023/07/20 02:52:03;;;;;;;11.70;11.10;;;;;;;12.43;100.00;101122.06;5072349;28;20492;-40
2023/07/20 02:54:31;;;;;;;11.10;10.70;;;;;;;12.45;100.00;101124.56;5072607;28;20431;-42
2023/07/20 02:56:58;;;;;;;12.47;11.67;;;;;;;12.46;100.00;101121.66;5072393;28;20458;-42
2023/07/20 02:59:29;;;;;;;10.90;10.50;;;;;;;12.48;100.00;101124.97;5071839;28;20596;-39
2023/07/20 03:01:57;;;;;;;11.90;11.40;;;;;;;12.49;100.00;101118.59;5073008;28;20440;-40
2023/07/20 03:04:27;;;;;;;11.40;10.80;;;;;;;12.51;100.00;101124.59;5072206;28;20480;-41
2023/07/20 03:06:55;;;;;;;12.53;11.93;;;;;;;12.50;100.00;101125.59;5072233;28;20948;-42
2023/07/20 03:09:22;;;;;;;12.73;12.03;;;;;;;12.52;100.00;101138.75;5071623;28;20458;-46
2023/07/20 03:11:50;;;;;;;12.10;11.50;;;;;;;12.53;100.00;101135.91;5071867;28;20431;-40
2023/07/20 03:14:18;;;;;;;12.17;11.67;;;;;;;12.50;100.00;101133.63;5072246;28;20465;-41
2023/07/20 03:16:47;;;;;;;12.27;11.70;;;;;;;12.53;100.00;101127.03;5073143;28;20434;-40
2023/07/20 03:19:15;;;;;;;12.90;11.70;;;;;;;12.55;100.00;101127.66;5071487;28;20486;-42
2023/07/20 03:21:43;;;;;;;10.97;10.57;;;;;;;12.57;100.00;101130.97;5071972;28;20418;-43
2023/07/20 03:24:10;;;;;;;12.13;11.37;;;;;;;12.58;100.00;101133.44;5071833;28;20485;-40
2023/07/20 03:26:38;;;;;;;10.90;10.30;;;;;;;12.58;100.00;101132.59;5072306;28;20484;-40
2023/07/20 03:29:06;;;;;;;11.47;11.07;;;;;;;12.60;100.00;101133.25;5076776;28;20458;-40
2023/07/20 03:31:34;;;;;;;11.63;11.23;;;;;;;12.62;100.00;101128.53;5083389;28;20429;-44
2023/07/20 03:34:03;;;;;;;11.10;10.60;;;;;;;12.65;100.00;101139.66;5082331;28;20524;-40
2023/07/20 03:36:31;;;;;;;12.47;11.87;;;;;;;12.68;100.00;101127.72;5082779;28;20495;-40
2023/07/20 03:38:59;;;;;;;11.83;11.33;;;;;;;12.72;100.00;101137.00;5082309;28;20446;-41
2023/07/20 03:41:27;;;;;;;11.40;11.00;;;;;;;12.76;100.00;101132.88;5083040;28;20430;-39
2023/07/20 03:43:54;;;;;;;11.23;10.67;;;;;;;12.83;100.00;101131.06;5082845;28;20464;-40
2023/07/20 03:46:22;;;;;;;11.63;11.13;;;;;;;12.89;100.00;101138.28;5084505;28;20461;-42
2023/07/20 03:48:50;;;;;;;11.77;11.20;;;;;;;12.96;100.00;101141.00;5082306;28;20441;-43
2023/07/20 03:51:19;;;;;;;12.00;11.40;;;;;;;13.01;100.00;101135.84;5081968;28;20458;-39
2023/07/20 03:53:47;;;;;;;12.07;11.47;;;;;;;13.11;100.00;101139.00;5082443;28;20474;-42
2023/07/20 03:56:14;;;;;;;10.63;10.23;;;;;;;13.19;100.00;101133.44;5082054;28;20507;-41
2023/07/20 03:58:42;;;;;;;12.93;12.00;;;;;;;13.30;100.00;101143.53;5081854;28;20461;-40
2023/07/20 04:01:10;;;;;;;12.53;12.03;;;;;;;13.39;100.00;101150.34;5082818;28;20434;-41
2023/07/20 04:03:38;;;;;;;11.90;11.40;;;;;;;13.44;100.00;101147.88;5083149;28;20458;-44
2023/07/20 04:06:06;;;;;;;12.40;11.70;;;;;;;13.48;100.00;101151.78;5083010;28;20509;-41
2023/07/20 04:08:36;;;;;;;12.53;11.90;;;;;;;13.47;100.00;101143.97;5081945;28;20785;-41
2023/07/20 04:11:04;;;;;;;12.37;11.73;;;;;;;13.49;100.00;101145.41;5082584;28;20829;-44
2023/07/20 04:13:33;;;;;;;10.73;10.33;;;;;;;13.56;100.00;101145.44;5082237;28;20474;-40
2023/07/20 04:16:02;;;;;;;11.10;10.60;;;;;;;13.58;100.00;101148.72;5081676;28;20457;-45
2023/07/20 04:18:30;;;;;;;11.53;10.90;;;;;;;13.60;100.00;101143.97;5081914;28;20438;-41
2023/07/20 04:20:57;;;;;;;11.37;10.80;;;;;;;13.65;100.00;101141.50;5080553;28;20465;-45
2023/07/20 04:23:25;;;;;;;11.33;10.93;;;;;;;13.65;100.00;101141.50;5081632;28;20485;-41
2023/07/20 04:25:55;;;;;;;11.17;10.80;;;;;;;13.71;100.00;101141.47;5081303;28;20847;-47
2023/07/20 04:28:22;;;;;;;11.13;10.63;;;;;;;13.74;100.00;101146.44;5082201;28;20434;-42
2023/07/20 04:30:51;;;;;;;11.40;10.90;;;;;;;13.95;100.00;101144.56;5081136;28;20458;-39
2023/07/20 04:33:19;;;;;;;11.73;10.67;;;;;;;15.14;100.00;101148.47;5081613;28;20542;-40
2023/07/20 04:35:52;;;;;;;10.90;10.50;;;;;;;16.36;100.00;101135.19;5081443;28;20948;-43
2023/07/20 04:38:20;;;;;;;11.87;11.27;;;;;;;17.44;100.00;101127.91;5081078;28;20434;-43
2023/07/20 04:40:49;;;;;;;11.63;11.13;;;;;;;18.43;100.00;101108.06;5081316;28;20515;-43
2023/07/20 04:43:19;;;;;;;10.60;10.27;;;;;;;19.33;100.00;101100.84;5082555;28;20450;-40
2023/07/20 04:45:47;;;;;;;9.70;9.30;;;;;;;20.54;100.00;101107.22;5082429;28;20426;-40
2023/07/20 04:48:16;;;;;;;10.30;9.80;;;;;;;21.41;100.00;101105.94;5082012;28;20456;-40
2023/07/20 04:50:45;;;;;;;9.57;9.07;;;;;;;22.34;100.00;101103.56;5078529;28;20485;-44
2023/07/20 04:53:14;;;;;;;9.33;8.97;;;;;;;23.14;100.00;101098.38;5059513;28;20524;-41
2023/07/20 04:55:50;;;;;;;8.10;7.80;;;;;;;23.94;100.00;101084.97;5076094;28;20445;-41
2023/07/20 04:58:20;;;;;;;8.33;7.83;;;;;;;24.59;100.00;101098.38;5079136;28;20776;-43
2023/07/20 05:00:49;;;;;;;7.80;7.50;;;;;;;25.18;99.83;101100.19;5079676;28;20454;-44
2023/07/20 05:03:17;;;;;;;7.40;7.10;;;;;;;25.41;95.25;101110.41;5079345;28;20680;-42
2023/07/20 05:05:45;;;;;;;5.90;5.60;;;;;;;25.43;85.46;101113.66;5079301;28;20426;-43
2023/07/20 05:08:17;;;;;;;4.50;4.20;;;;;;;24.28;86.69;101110.53;5078770;28;20583;-42
2023/07/20 05:10:44;;;;;;;4.37;4.07;;;;;;;23.34;85.51;101111.16;5078257;28;20484;-44
2023/07/20 05:13:12;;;;;;;4.37;4.13;;;;;;;23.22;93.69;101110.59;5077727;28;20485;-43
2023/07/20 05:15:41;;;;;;;6.50;5.43;;;;;;;24.17;89.00;101106.19;5079612;28;20437;-40
2023/07/20 05:18:10;;;;;;;4.63;4.27;;;;;;;24.77;79.56;101107.81;5080252;28;20426;-40
2023/07/20 05:20:38;;;;;;;4.83;4.43;;;;;;;25.37;73.59;101106.59;5078534;28;20469;-40
2023/07/20 05:23:05;;;;;;;5.30;4.03;;;;;;;26.07;69.47;101107.03;5078274;28;20453;-41
2023/07/20 05:25:33;;;;;;;4.40;4.00;;;;;;;25.69;65.41;101111.53;5078110;28;20419;-40
2023/07/20 05:28:01;;;;;;;3.73;3.47;;;;;;;26.14;60.44;101108.31;5079249;28;20441;-46
2023/07/20 05:30:30;;;;;;;5.10;4.10;;;;;;;25.82;62.80;101113.59;5078539;28;20465;-41
2023/07/20 05:32:59;;;;;;;6.93;3.70;;;;;;;26.57;69.78;101102.91;5081702;28;20448;-41
2023/07/20 05:35:27;;;;;;;3.87;3.40;;;;;;;25.94;62.79;101113.19;5082170;28;20534;-44
2023/07/20 05:37:55;;;;;;;3.43;3.20;;;;;;;24.87;64.83;101105.06;5082398;28;20503;-41
2023/07/20 05:40:22;;;;;;;4.17;3.53;;;;;;;25.16;69.67;101103.22;5080375;28;20894;-43
2023/07/20 05:42:51;;;;;;;4.40;4.00;;;;;;;24.19;64.62;101104.00;5081408;28;20453;-43
2023/07/20 05:45:20;;;;;;;6.10;3.77;;;;;;;24.51;71.29;101101.69;5080390;28;20426;-41
2023/07/20 05:47:48;;;;;;;3.83;3.60;;;;;;;25.46;69.62;101104.88;5080744;28;20452;-45
2023/07/20 05:50:17;;;;;;;4.47;4.10;;;;;;;25.80;68.74;101110.34;5082073;28;20462;-45
2023/07/20 05:52:45;;;;;;;6.70;5.17;;;;;;;26.65;63.96;101097.56;5081735;28;20463;-43
2023/07/20 05:55:12;;;;;;;4.33;4.03;;;;;;;27.28;63.38;101097.19;5081573;28;20492;-43
2023/07/20 05:57:42;;;;;;;3.97;3.67;;;;;;;27.88;57.43;101096.16;5080281;28;20875;-41
2023/07/20 06:00:12;;;;;;;4.70;3.90;;;;;;;28.37;55.67;101094.66;5080374;28;20496;-43
2023/07/20 06:02:42;;;;;;;3.43;3.20;;;;;;;28.97;56.35;101095.25;5081840;28;20437;-42
2023/07/20 06:05:10;;;;;;;3.90;3.70;;;;;;;29.30;49.92;101091.16;5081579;28;20495;-42
2023/07/20 06:07:40;;;;;;;4.03;3.63;;;;;;;29.83;51.39;101098.63;5082298;28;20226;-41
2023/07/20 06:10:08;;;;;;;4.60;4.30;;;;;;;30.05;52.13;101101.28;5081715;28;20302;-42
2023/07/20 06:12:36;;;;;;;4.70;4.10;;;;;;;30.37;47.16;101094.59;5082091;28;20227;-45
2023/07/20 06:15:05;;;;;;;4.27;3.40;;;;;;;30.37;50.04;101094.59;5081447;28;20211;-41
2023/07/20 06:17:33;;;;;;;4.10;3.80;;;;;;;30.67;44.86;101089.00;5083100;28;20192;-41
2023/07/20 06:20:01;;;;;;;3.30;3.00;;;;;;;31.13;47.63;101087.56;5081263;28;20302;-41
2023/07/20 06:22:29;;;;;;;3.90;3.40;;;;;;;31.33;47.27;101091.63;5081932;28;20740;-39
2023/07/20 06:24:58;;;;;;;4.13;3.83;;;;;;;31.34;46.14;101094.03;5081321;28;20188;-46
2023/07/20 06:27:27;;;;;;;4.10;3.50;;;;;;;31.57;42.35;101097.44;5081038;28;20197;-40
2023/07/20 06:29:57;;;;;;;6.00;3.45;;;;;;;31.25;43.16;101094.06;5074947;28;20215;-43
2023/07/20 06:32:25;;;;;;;4.47;3.30;;;;;;;31.14;40.58;101087.28;5082828;28;20215;-38
2023/07/20 06:34:53;;;;;;;4.25;3.22;;;;;;;31.04;41.12;101087.59;5081160;28;20274;-45
2023/07/20 06:37:21;;;;;;;4.77;3.23;;;;;;;30.80;40.13;101092.75;5080838;28;20183;-42
2023/07/20 06:39:48;;;;;;;7.00;4.03;;;;;;;29.90;42.91;101097.03;5081856;28;20267;-42
2023/07/20 06:42:21;;;;;;;3.05;2.78;;;;;;;30.30;42.67;101092.31;5079431;28;20250;-44
2023/07/20 06:44:49;;;;;;;3.63;3.30;;;;;;;29.68;43.14;101091.56;5078810;28;20183;-45
2023/07/20 06:47:16;;;;;;;9.20;3.03;;;;;;;27.63;42.69;101091.13;5080816;28;20203;-44
2023/07/20 06:49:44;;;;;;;3.65;3.17;;;;;;;25.77;48.01;101103.53;5079851;28;20231;-41
2023/07/20 06:52:12;;;;;;;4.10;2.50;;;;;;;23.93;53.67;101102.41;5079930;28;20273;-41
2023/07/20 06:54:40;;;;;;;8.23;2.97;;;;;;;24.54;54.85;101106.59;5078859;28;20235;-42
2023/07/20 06:57:11;;;;;;;3.87;2.60;;;;;;;24.69;55.87;101103.78;5080014;28;20449;-45
2023/07/20 06:59:43;;;;;;;3.17;2.93;;;;;;;25.84;53.04;101090.34;5077637;28;20215;-41
2023/07/20 07:02:16;;;;;;;4.77;3.77;;;;;;;24.69;54.54;101097.50;5077730;28;20533;-41
2023/07/20 07:04:44;;;;;;;4.83;3.50;;;;;;;22.41;64.45;101095.97;5077954;28;20440;-41
2023/07/20 07:07:12;;;;;;;5.10;2.90;;;;;;;21.61;73.71;101096.31;5079260;28;20434;-43
2023/07/20 07:09:39;;;;;;;4.13;3.27;;;;;;;21.00;84.44;101093.06;5078825;28;20457;-42
2023/07/20 07:12:08;;;;;;;5.13;3.10;;;;;;;22.05;81.90;101095.00;5079846;28;20434;-43
2023/07/20 07:14:36;;;;;;;4.67;3.50;;;;;;;22.88;81.13;101085.00;5078663;28;20552;-41
2023/07/20 07:17:07;;;;;;;5.50;3.20;;;;;;;23.80;69.21;101086.66;5078190;28;20430;-42
2023/07/20 07:19:36;;;;;;;5.70;3.03;;;;;;;23.85;65.06;101084.72;5078524;28;20488;-43
2023/07/20 07:22:04;;;;;;;5.70;3.23;;;;;;;24.93;60.18;101086.75;5079260;28;20528;-44
2023/07/20 07:24:36;;;;;;;5.67;3.20;;;;;;;26.03;58.88;101089.59;5078666;28;20430;-42
2023/07/20 07:27:05;;;;;;;7.13;3.37;;;;;;;27.10;57.10;101085.16;5078379;28;20519;-44
2023/07/20 07:29:32;;;;;;;2.90;2.47;;;;;;;27.78;51.63;101084.56;5079084;28;21184;-47
2023/07/20 07:32:01;;;;;;;2.57;2.37;;;;;;;27.99;48.09;101086.59;5079547;28;20422;-47
2023/07/20 07:34:34;;;;;;;3.37;2.80;;;;;;;28.13;46.53;101083.09;5077496;28;20434;-41
2023/07/20 07:37:02;;;;;;;2.93;2.70;;;;;;;28.30;47.89;101089.59;5078862;28;20541;-44
2023/07/20 07:39:30;;;;;;;2.97;2.60;;;;;;;27.69;47.66;101084.44;5078161;28;20255;-42
2023/07/20 07:42:02;;;;;;;3.50;3.10;;;;;;;27.00;48.28;101087.25;5079183;28;20263;-41
2023/07/20 07:44:30;;;;;;;3.23;2.90;;;;;;;25.62;50.41;101090.03;5078969;28;20608;-43
2023/07/20 07:46:58;;;;;;;2.90;2.70;;;;;;;23.94;54.03;101093.97;5082099;28;20461;-43
2023/07/20 07:49:26;;;;;;;4.80;3.00;;;;;;;21.63;71.24;101113.16;5079627;28;20956;-42
2023/07/20 07:51:55;;;;;;;3.00;2.70;;;;;;;20.36;92.88;101114.59;5079413;28;20460;-42
2023/07/20 07:54:23;;;;;;;3.07;2.77;;;;;;;19.51;100.00;101118.72;5078538;28;20724;-41
2023/07/20 07:56:51;;;;;;;2.93;2.63;;;;;;;19.07;100.00;101117.69;5078783;28;20465;-40
2023/07/20 07:59:19;;;;;;;5.57;3.70;;;;;;;19.98;100.00;101111.06;5075753;28;20476;-40
2023/07/20 08:01:46;;;;;;;3.50;3.20;;;;;;;20.47;100.00;101109.28;5079817;28;20445;-41
2023/07/20 08:04:14;;;;;;;3.27;2.97;;;;;;;20.89;99.08;101113.84;5078130;28;20525;-42
2023/07/20 08:06:42;;;;;;;4.63;3.40;;;;;;;21.66;94.59;101101.78;5077751;28;20473;-42
2023/07/20 08:09:11;;;;;;;3.13;2.80;;;;;;;22.63;86.57;101104.75;5078158;28;21176;-41
2023/07/20 08:11:40;;;;;;;3.97;3.10;;;;;;;22.64;79.69;101109.09;5072593;28;20455;-42
2023/07/20 08:14:08;;;;;;;4.03;2.97;;;;;;;22.56;78.78;101106.91;5079909;28;20453;-41
2023/07/20 08:16:35;;;;;;;3.20;2.43;;;;;;;21.84;83.14;101120.38;5076682;28;20546;-44
2023/07/20 08:19:03;;;;;;;5.13;2.77;;;;;;;20.85;95.94;101114.59;5075653;28;20453;-42
2023/07/20 08:21:31;;;;;;;3.17;2.77;;;;;;;19.90;100.00;101117.72;5077825;28;20418;-43
2023/07/20 08:23:59;;;;;;;3.83;2.67;;;;;;;19.38;100.00;101111.75;5076086;28;20481;-42
2023/07/20 08:26:28;;;;;;;5.90;4.50;;;;;;;18.86;100.00;101124.59;5077238;28;20429;-43
2023/07/20 08:28:56;;;;;;;3.60;2.40;;;;;;;19.25;100.00;101122.88;5076141;28;20458;-40
2023/07/20 08:31:24;;;;;;;3.00;2.80;;;;;;;19.39;100.00;101112.53;5076717;28;20468;-42
2023/07/20 08:33:52;;;;;;;6.97;2.80;;;;;;;19.69;100.00;101116.59;5074883;28;20776;-43
2023/07/20 08:36:20;;;;;;;3.30;3.00;;;;;;;20.18;100.00;101120.28;5075557;28;20461;-46
2023/07/20 08:38:48;;;;;;;3.73;3.10;;;;;;;20.70;100.00;101120.69;5069404;28;20501;-47
2023/07/20 08:41:17;;;;;;;3.20;2.90;;;;;;;20.72;100.00;101117.72;5076285;28;20464;-43
2023/07/20 08:43:47;;;;;;;3.57;2.93;;;;;;;20.83;98.00;101114.03;5075524;28;20453;-41
2023/07/20 08:46:17;;;;;;;3.30;2.60;;;;;;;20.30;100.00;101134.56;5075170;28;20418;-44
2023/07/20 08:48:45;;;;;;;5.33;2.27;;;;;;;18.70;100.00;101150.50;5073592;28;20429;-43
2023/07/20 08:51:14;;;;;;;3.37;2.67;;;;;;;18.04;100.00;101159.03;5074578;28;20517;-45
2023/07/20 08:53:42;;;;;;;2.83;2.73;;;;;;;17.96;100.00;101159.41;5074929;28;20441;-41
2023/07/20 08:56:11;;;;;;;2.70;2.50;;;;;;;18.02;100.00;101154.94;5073572;28;20776;-41
2023/07/20 08:58:42;;;;;;;2.53;2.43;;;;;;;18.29;100.00;101161.50;5072911;28;20433;-41
2023/07/20 09:01:12;;;;;;;2.23;2.13;;;;;;;18.06;100.00;101154.25;5073107;28;20453;-43
2023/07/20 09:03:40;;;;;;;4.03;2.70;;;;;;;18.24;100.00;101158.69;5073075;28;20474;-41
2023/07/20 09:06:08;;;;;;;2.70;2.60;;;;;;;18.29;100.00;101156.09;5063973;28;20510;-42
2023/07/20 09:08:39;;;;;;;2.60;2.40;;;;;;;18.43;100.00;101154.75;5074317;28;20427;-40
2023/07/20 09:11:07;;;;;;;2.37;2.27;;;;;;;18.68;100.00;101151.81;5075315;28;20501;-40
2023/07/20 09:13:35;;;;;;;3.00;2.90;;;;;;;19.15;100.00;101145.13;5074670;28;20481;-45
2023/07/20 09:16:04;;;;;;;3.40;3.20;;;;;;;19.32;100.00;101153.28;5074410;28;20512;-43
2023/07/20 09:18:35;;;;;;;3.00;2.80;;;;;;;19.50;100.00;101150.41;5074740;28;20430;-44
2023/07/20 09:21:03;;;;;;;3.40;3.10;;;;;;;19.35;100.00;101144.69;5073552;28;20450;-41
2023/07/20 09:23:32;;;;;;;3.83;3.63;;;;;;;19.51;100.00;101164.72;5074551;28;20493;-42
2023/07/20 09:26:01;;;;;;;3.70;3.40;;;;;;;19.00;100.00;101152.97;5075723;28;20829;-44
2023/07/20 09:28:29;;;;;;;4.90;4.00;;;;;;;18.69;100.00;101143.47;5075647;28;21030;-40
2023/07/20 09:30:58;;;;;;;5.93;3.90;;;;;;;19.24;100.00;101148.25;5067755;28;20518;-40
2023/07/20 09:33:26;;;;;;;5.17;3.57;;;;;;;19.69;100.00;101143.66;5068214;28;20441;-44
2023/07/20 09:36:03;;;;;;;6.10;3.87;;;;;;;19.48;100.00;101154.38;5067357;28;20466;-40
2023/07/20 09:38:51;;;;;;;4.03;3.30;;;;;;;19.87;100.00;101153.41;5063490;28;20843;-44
2023/07/20 09:41:22;;;;;;;3.43;3.20;;;;;;;20.02;100.00;101150.91;5065372;28;20496;-43
2023/07/20 09:43:54;;;;;;;5.77;3.70;;;;;;;19.69;100.00;101157.19;5065641;28;21057;-43
2023/07/20 09:46:22;;;;;;;4.93;4.40;;;;;;;19.58;100.00;101159.97;5066432;28;20426;-43
2023/07/20 09:48:53;;;;;;;6.07;4.10;;;;;;;19.74;100.00;101167.28;5068502;28;20422;-41
2023/07/20 09:51:25;;;;;;;8.20;3.97;;;;;;;20.03;100.00;101168.00;5066027;28;20426;-46
2023/07/20 09:53:55;;;;;;;4.20;3.90;;;;;;;19.69;100.00;101169.88;5065805;28;20446;-40
2023/07/20 09:56:23;;;;;;;5.70;4.13;;;;;;;19.65;100.00;101166.06;5065583;28;20501;-40
2023/07/20 09:58:52;;;;;;;5.43;4.10;;;;;;;19.90;100.00;101163.72;5066296;28;20418;-40
2023/07/20 10:01:22;;;;;;;4.33;3.60;;;;;;;20.17;100.00;101161.16;5065480;28;20469;-46
2023/07/20 10:03:55;;;;;;;4.33;3.30;;;;;;;20.44;98.71;101153.97;5064439;28;21012;-42
2023/07/20 10:06:25;;;;;;;4.87;3.80;;;;;;;20.09;92.17;101156.16;5065049;28;20422;-44
2023/07/20 10:08:56;;;;;;;4.80;4.20;;;;;;;20.28;99.37;101160.28;5064955;28;20450;-42
2023/07/20 10:11:30;;;;;;;5.03;4.70;;;;;;;19.52;92.18;101171.78;5064522;28;20458;-42
2023/07/20 10:14:00;;;;;;;6.77;3.90;;;;;;;19.33;99.61;101152.22;5064974;28;20473;-43
2023/07/20 10:16:32;;;;;;;4.83;4.47;;;;;;;19.52;89.00;101153.66;5065135;28;20557;-40
2023/07/20 10:19:07;;;;;;;3.93;3.50;;;;;;;19.70;94.40;101163.41;5066274;28;20472;-43
2023/07/20 10:21:49;;;;;;;3.93;3.63;;;;;;;20.16;89.37;101151.41;5069204;28;20453;-45
2023/07/20 10:24:24;;;;;;;6.23;4.77;;;;;;;20.21;89.50;101152.28;5068651;28;20844;-40
2023/07/20 10:26:52;;;;;;;5.93;5.40;;;;;;;20.60;87.94;101152.28;5068773;28;20418;-41
2023/07/20 10:29:20;;;;;;;4.40;4.10;;;;;;;20.62;86.66;101152.81;5065998;28;20518;-41
2023/07/20 10:31:49;;;;;;;7.20;4.50;;;;;;;20.34;82.74;101148.41;5070454;28;20440;-43
2023/07/20 10:34:17;;;;;;;4.90;4.50;;;;;;;20.58;80.77;101155.22;5069539;28;20429;-42
2023/07/20 10:36:51;;;;;;;5.47;4.77;;;;;;;20.40;81.57;101160.94;5069595;28;20497;-41
2023/07/20 10:39:27;;;;;;;5.53;3.70;;;;;;;19.88;80.00;101150.47;5069944;28;20522;-42
2023/07/20 10:42:03;;;;;;;5.40;4.47;;;;;;;19.87;86.22;101173.16;5070188;28;20421;-41
2023/07/20 10:44:31;;;;;;;4.43;4.00;;;;;;;19.81;81.96;101162.50;5070143;28;20508;-42
2023/07/20 10:47:05;;;;;;;5.10;4.00;;;;;;;20.07;83.66;101150.97;5070099;28;20604;-43
2023/07/20 10:49:34;;;;;;;4.67;4.27;;;;;;;19.89;88.38;101168.31;5068812;28;20453;-40
2023/07/20 10:52:07;;;;;;;7.80;3.90;;;;;;;20.11;83.92;101168.38;5069257;28;20421;-45
2023/07/20 10:54:48;;;;;;;5.87;4.33;;;;;;;20.17;85.85;101163.84;5070114;28;20800;-41
2023/07/20 10:57:32;;;;;;;5.97;4.07;;;;;;;20.15;85.52;101171.41;5067724;28;20512;-42
2023/07/20 11:00:12;;;;;;;4.43;4.03;;;;;;;20.30;87.21;101155.41;5069328;28;20460;-41
2023/07/20 11:02:45;;;;;;;7.00;4.80;;;;;;;20.64;84.10;101154.22;5067633;28;20476;-40
2023/07/20 11:05:35;;;;;;;4.67;4.20;;;;;;;20.35;87.78;101164.41;5070089;28;20446;-46
2023/07/20 11:08:10;;;;;;;6.70;4.10;;;;;;;20.45;85.81;101166.44;5070190;28;20505;-45
2023/07/20 11:10:37;;;;;;;6.60;4.30;;;;;;;20.34;86.87;101168.19;5062982;28;20496;-43
2023/07/20 11:13:19;;;;;;;7.07;4.90;;;;;;;19.62;97.09;101166.53;5070205;28;21262;-40
2023/07/20 11:15:48;;;;;;;5.40;4.10;;;;;;;19.74;97.01;101176.19;5069698;28;20803;-40
2023/07/20 11:18:16;;;;;;;4.50;4.00;;;;;;;19.51;94.91;101170.94;5072057;28;20474;-41
2023/07/20 11:20:44;;;;;;;7.73;4.20;;;;;;;19.89;94.40;101181.84;5071695;28;20981;-40
2023/07/20 11:23:13;;;;;;;6.20;4.53;;;;;;;20.06;94.42;101175.63;5070747;28;20450;-46
2023/07/20 11:25:41;;;;;;;4.67;4.20;;;;;;;19.72;92.52;101169.41;5071877;28;20440;-41
2023/07/20 11:28:10;;;;;;;5.80;3.93;;;;;;;19.55;95.07;101164.00;5071814;28;20464;-40